sensor_id;sensor_type;location;lat;lon;timestamp;P1;durP1;ratioP1;P2;durP2;ratioP2
20203;SDS011;10261;49.010;12.034;2024-03-02T00:00:29;44.05;;;23.27;;
20203;SDS011;10261;49.010;12.034;2024-03-02T00:01:35;37.10;;;21.05;;
20203;SDS011;10261;49.010;12.034;2024-03-02T00:02:39;41.72;;;22.17;;
20203;SDS011;10261;49.010;12.034;2024-03-02T00:03:42;42.00;;;20.85;;
20203;SDS011;10261;49.010;12.034;2024-03-02T00:04:45;42.08;;;23.42;;
20203;SDS011;10261;49.010;12.034;2024-03-02T00:05:49;36.95;;;21.92;;
20203;SDS011;10261;49.010;12.034;2024-03-02T00:06:53;37.85;;;21.30;;
20203;SDS011;10261;49.010;12.034;2024-03-02T00:07:57;42.08;;;22.83;;
20203;SDS011;10261;49.010;12.034;2024-03-02T00:09:01;39.30;;;22.67;;
20203;SDS011;10261;49.010;12.034;2024-03-02T00:10:04;47.58;;;24.67;;
20203;SDS011;10261;49.010;12.034;2024-03-02T00:11:13;49.22;;;24.65;;
20203;SDS011;10261;49.010;12.034;2024-03-02T00:12:18;41.22;;;23.00;;
20203;SDS011;10261;49.010;12.034;2024-03-02T00:13:23;40.05;;;21.08;;
20203;SDS011;10261;49.010;12.034;2024-03-02T00:14:27;48.35;;;22.92;;
20203;SDS011;10261;49.010;12.034;2024-03-02T00:15:42;48.03;;;23.33;;
20203;SDS011;10261;49.010;12.034;2024-03-02T00:16:50;50.00;;;24.17;;
20203;SDS011;10261;49.010;12.034;2024-03-02T00:17:54;44.63;;;23.10;;
20203;SDS011;10261;49.010;12.034;2024-03-02T00:19:00;47.60;;;23.70;;
20203;SDS011;10261;49.010;12.034;2024-03-02T00:20:04;38.08;;;22.90;;
20203;SDS011;10261;49.010;12.034;2024-03-02T00:21:11;52.50;;;24.27;;
20203;SDS011;10261;49.010;12.034;2024-03-02T00:22:16;43.88;;;23.17;;
20203;SDS011;10261;49.010;12.034;2024-03-02T00:23:18;41.60;;;21.85;;
20203;SDS011;10261;49.010;12.034;2024-03-02T00:24:24;46.08;;;24.80;;
20203;SDS011;10261;49.010;12.034;2024-03-02T00:25:40;42.63;;;22.70;;
20203;SDS011;10261;49.010;12.034;2024-03-02T00:26:44;46.92;;;23.13;;
20203;SDS011;10261;49.010;12.034;2024-03-02T00:27:50;38.95;;;21.55;;
20203;SDS011;10261;49.010;12.034;2024-03-02T00:28:54;37.92;;;22.15;;
20203;SDS011;10261;49.010;12.034;2024-03-02T00:29:59;37.95;;;21.70;;
20203;SDS011;10261;49.010;12.034;2024-03-02T00:31:02;41.28;;;21.75;;
20203;SDS011;10261;49.010;12.034;2024-03-02T00:32:09;37.35;;;21.08;;
20203;SDS011;10261;49.010;12.034;2024-03-02T00:33:15;38.72;;;20.55;;
20203;SDS011;10261;49.010;12.034;2024-03-02T00:34:17;42.17;;;23.50;;
20203;SDS011;10261;49.010;12.034;2024-03-02T00:35:20;44.65;;;22.27;;
20203;SDS011;10261;49.010;12.034;2024-03-02T00:36:25;42.50;;;23.17;;
20203;SDS011;10261;49.010;12.034;2024-03-02T00:37:29;44.97;;;22.00;;
20203;SDS011;10261;49.010;12.034;2024-03-02T00:38:31;36.78;;;21.00;;
20203;SDS011;10261;49.010;12.034;2024-03-02T00:39:34;43.97;;;23.25;;
20203;SDS011;10261;49.010;12.034;2024-03-02T00:40:37;35.92;;;21.58;;
20203;SDS011;10261;49.010;12.034;2024-03-02T00:41:40;37.72;;;19.77;;
20203;SDS011;10261;49.010;12.034;2024-03-02T00:42:44;39.28;;;20.70;;
20203;SDS011;10261;49.010;12.034;2024-03-02T00:43:47;41.83;;;21.73;;
20203;SDS011;10261;49.010;12.034;2024-03-02T00:44:55;39.08;;;21.20;;
20203;SDS011;10261;49.010;12.034;2024-03-02T00:45:58;42.22;;;21.52;;
20203;SDS011;10261;49.010;12.034;2024-03-02T00:47:00;42.00;;;21.33;;
20203;SDS011;10261;49.010;12.034;2024-03-02T00:48:06;29.75;;;18.35;;
20203;SDS011;10261;49.010;12.034;2024-03-02T00:49:11;43.08;;;21.40;;
20203;SDS011;10261;49.010;12.034;2024-03-02T00:50:20;37.38;;;21.30;;
20203;SDS011;10261;49.010;12.034;2024-03-02T00:51:31;38.40;;;20.90;;
20203;SDS011;10261;49.010;12.034;2024-03-02T00:52:37;42.53;;;23.13;;
20203;SDS011;10261;49.010;12.034;2024-03-02T00:53:39;43.22;;;22.05;;
20203;SDS011;10261;49.010;12.034;2024-03-02T00:54:41;39.97;;;21.80;;
20203;SDS011;10261;49.010;12.034;2024-03-02T00:55:46;39.03;;;20.40;;
20203;SDS011;10261;49.010;12.034;2024-03-02T00:56:49;34.97;;;20.85;;
20203;SDS011;10261;49.010;12.034;2024-03-02T00:57:53;38.42;;;21.05;;
20203;SDS011;10261;49.010;12.034;2024-03-02T00:58:55;39.88;;;20.35;;
20203;SDS011;10261;49.010;12.034;2024-03-02T00:59:58;38.45;;;21.60;;
20203;SDS011;10261;49.010;12.034;2024-03-02T01:01:01;45.05;;;22.92;;
20203;SDS011;10261;49.010;12.034;2024-03-02T01:02:04;39.40;;;22.63;;
20203;SDS011;10261;49.010;12.034;2024-03-02T01:03:08;43.60;;;22.73;;
20203;SDS011;10261;49.010;12.034;2024-03-02T01:04:11;41.03;;;22.70;;
20203;SDS011;10261;49.010;12.034;2024-03-02T01:05:15;39.88;;;20.10;;
20203;SDS011;10261;49.010;12.034;2024-03-02T01:06:17;41.65;;;22.38;;
20203;SDS011;10261;49.010;12.034;2024-03-02T01:07:21;39.95;;;20.45;;
20203;SDS011;10261;49.010;12.034;2024-03-02T01:08:23;45.45;;;24.60;;
20203;SDS011;10261;49.010;12.034;2024-03-02T01:09:25;37.42;;;22.90;;
20203;SDS011;10261;49.010;12.034;2024-03-02T01:10:29;37.60;;;20.52;;
20203;SDS011;10261;49.010;12.034;2024-03-02T01:11:31;37.03;;;20.92;;
20203;SDS011;10261;49.010;12.034;2024-03-02T01:12:34;42.25;;;22.27;;
20203;SDS011;10261;49.010;12.034;2024-03-02T01:13:37;43.55;;;23.05;;
20203;SDS011;10261;49.010;12.034;2024-03-02T01:14:40;43.83;;;22.15;;
20203;SDS011;10261;49.010;12.034;2024-03-02T01:15:43;38.78;;;20.63;;
20203;SDS011;10261;49.010;12.034;2024-03-02T01:16:46;35.95;;;20.33;;
20203;SDS011;10261;49.010;12.034;2024-03-02T01:17:48;39.55;;;22.00;;
20203;SDS011;10261;49.010;12.034;2024-03-02T01:18:57;44.03;;;24.02;;
20203;SDS011;10261;49.010;12.034;2024-03-02T01:20:00;36.42;;;20.70;;
20203;SDS011;10261;49.010;12.034;2024-03-02T01:21:03;44.55;;;23.40;;
20203;SDS011;10261;49.010;12.034;2024-03-02T01:22:06;39.45;;;21.02;;
20203;SDS011;10261;49.010;12.034;2024-03-02T01:23:09;40.10;;;21.58;;
20203;SDS011;10261;49.010;12.034;2024-03-02T01:24:11;39.97;;;20.60;;
20203;SDS011;10261;49.010;12.034;2024-03-02T01:25:14;40.80;;;22.95;;
20203;SDS011;10261;49.010;12.034;2024-03-02T01:26:17;44.67;;;21.60;;
20203;SDS011;10261;49.010;12.034;2024-03-02T01:27:20;39.30;;;21.02;;
20203;SDS011;10261;49.010;12.034;2024-03-02T01:28:22;36.28;;;21.40;;
20203;SDS011;10261;49.010;12.034;2024-03-02T01:29:25;41.80;;;22.23;;
20203;SDS011;10261;49.010;12.034;2024-03-02T01:30:27;41.45;;;21.15;;
20203;SDS011;10261;49.010;12.034;2024-03-02T01:31:30;45.53;;;21.02;;
20203;SDS011;10261;49.010;12.034;2024-03-02T01:32:33;36.35;;;21.40;;
20203;SDS011;10261;49.010;12.034;2024-03-02T01:33:36;43.47;;;21.75;;
20203;SDS011;10261;49.010;12.034;2024-03-02T01:34:40;38.95;;;21.10;;
20203;SDS011;10261;49.010;12.034;2024-03-02T01:35:43;39.63;;;22.00;;
20203;SDS011;10261;49.010;12.034;2024-03-02T01:36:45;40.20;;;20.63;;
20203;SDS011;10261;49.010;12.034;2024-03-02T01:37:49;45.13;;;20.77;;
20203;SDS011;10261;49.010;12.034;2024-03-02T01:38:50;47.58;;;23.75;;
20203;SDS011;10261;49.010;12.034;2024-03-02T01:39:54;40.67;;;21.40;;
20203;SDS011;10261;49.010;12.034;2024-03-02T01:40:56;44.22;;;21.45;;
20203;SDS011;10261;49.010;12.034;2024-03-02T01:41:59;38.55;;;20.77;;
20203;SDS011;10261;49.010;12.034;2024-03-02T01:43:02;41.33;;;20.83;;
20203;SDS011;10261;49.010;12.034;2024-03-02T01:44:06;38.58;;;20.25;;
20203;SDS011;10261;49.010;12.034;2024-03-02T01:45:08;45.60;;;21.42;;
20203;SDS011;10261;49.010;12.034;2024-03-02T01:46:12;40.50;;;20.83;;
20203;SDS011;10261;49.010;12.034;2024-03-02T01:47:14;43.03;;;22.23;;
20203;SDS011;10261;49.010;12.034;2024-03-02T01:48:17;34.65;;;20.90;;
20203;SDS011;10261;49.010;12.034;2024-03-02T01:49:20;33.53;;;19.30;;
20203;SDS011;10261;49.010;12.034;2024-03-02T01:50:38;38.67;;;20.85;;
20203;SDS011;10261;49.010;12.034;2024-03-02T01:51:40;32.38;;;19.13;;
20203;SDS011;10261;49.010;12.034;2024-03-02T01:52:44;34.58;;;19.55;;
20203;SDS011;10261;49.010;12.034;2024-03-02T01:53:47;36.63;;;19.85;;
20203;SDS011;10261;49.010;12.034;2024-03-02T01:54:50;36.42;;;20.77;;
20203;SDS011;10261;49.010;12.034;2024-03-02T01:55:53;40.58;;;20.38;;
20203;SDS011;10261;49.010;12.034;2024-03-02T01:56:55;38.33;;;21.00;;
20203;SDS011;10261;49.010;12.034;2024-03-02T01:57:58;33.70;;;18.65;;
20203;SDS011;10261;49.010;12.034;2024-03-02T01:59:01;42.53;;;21.52;;
20203;SDS011;10261;49.010;12.034;2024-03-02T02:00:05;32.95;;;18.90;;
20203;SDS011;10261;49.010;12.034;2024-03-02T02:01:11;32.47;;;19.25;;
20203;SDS011;10261;49.010;12.034;2024-03-02T02:02:14;38.10;;;20.42;;
20203;SDS011;10261;49.010;12.034;2024-03-02T02:03:17;37.85;;;19.92;;
20203;SDS011;10261;49.010;12.034;2024-03-02T02:04:20;33.88;;;20.10;;
20203;SDS011;10261;49.010;12.034;2024-03-02T02:05:30;32.22;;;19.02;;
20203;SDS011;10261;49.010;12.034;2024-03-02T02:06:34;33.20;;;18.08;;
20203;SDS011;10261;49.010;12.034;2024-03-02T02:07:36;36.35;;;18.92;;
20203;SDS011;10261;49.010;12.034;2024-03-02T02:08:38;39.85;;;19.65;;
20203;SDS011;10261;49.010;12.034;2024-03-02T02:09:41;32.47;;;18.02;;
20203;SDS011;10261;49.010;12.034;2024-03-02T02:10:44;34.45;;;19.38;;
20203;SDS011;10261;49.010;12.034;2024-03-02T02:11:47;38.55;;;19.88;;
20203;SDS011;10261;49.010;12.034;2024-03-02T02:12:49;34.28;;;18.42;;
20203;SDS011;10261;49.010;12.034;2024-03-02T02:13:53;38.53;;;18.88;;
20203;SDS011;10261;49.010;12.034;2024-03-02T02:14:57;37.10;;;20.20;;
20203;SDS011;10261;49.010;12.034;2024-03-02T02:16:04;37.00;;;20.27;;
20203;SDS011;10261;49.010;12.034;2024-03-02T02:17:08;34.30;;;18.95;;
20203;SDS011;10261;49.010;12.034;2024-03-02T02:18:10;34.67;;;19.25;;
20203;SDS011;10261;49.010;12.034;2024-03-02T02:19:14;36.03;;;19.70;;
20203;SDS011;10261;49.010;12.034;2024-03-02T02:20:16;43.20;;;20.40;;
20203;SDS011;10261;49.010;12.034;2024-03-02T02:21:23;36.15;;;20.08;;
20203;SDS011;10261;49.010;12.034;2024-03-02T02:22:26;33.50;;;19.42;;
20203;SDS011;10261;49.010;12.034;2024-03-02T02:23:28;34.20;;;18.70;;
20203;SDS011;10261;49.010;12.034;2024-03-02T02:24:31;31.38;;;18.92;;
20203;SDS011;10261;49.010;12.034;2024-03-02T02:25:34;33.17;;;17.95;;
20203;SDS011;10261;49.010;12.034;2024-03-02T02:26:37;32.40;;;18.60;;
20203;SDS011;10261;49.010;12.034;2024-03-02T02:27:39;42.65;;;19.70;;
20203;SDS011;10261;49.010;12.034;2024-03-02T02:28:43;34.55;;;19.70;;
20203;SDS011;10261;49.010;12.034;2024-03-02T02:29:48;38.67;;;20.63;;
20203;SDS011;10261;49.010;12.034;2024-03-02T02:30:51;36.58;;;19.45;;
20203;SDS011;10261;49.010;12.034;2024-03-02T02:31:58;31.02;;;19.45;;
20203;SDS011;10261;49.010;12.034;2024-03-02T02:33:01;33.40;;;19.85;;
20203;SDS011;10261;49.010;12.034;2024-03-02T02:34:03;35.05;;;19.85;;
20203;SDS011;10261;49.010;12.034;2024-03-02T02:35:06;31.08;;;18.65;;
20203;SDS011;10261;49.010;12.034;2024-03-02T02:36:10;33.58;;;19.00;;
20203;SDS011;10261;49.010;12.034;2024-03-02T02:37:14;35.30;;;20.30;;
20203;SDS011;10261;49.010;12.034;2024-03-02T02:38:16;34.55;;;19.75;;
20203;SDS011;10261;49.010;12.034;2024-03-02T02:39:21;32.42;;;17.90;;
20203;SDS011;10261;49.010;12.034;2024-03-02T02:40:24;30.08;;;17.42;;
20203;SDS011;10261;49.010;12.034;2024-03-02T02:41:27;26.60;;;16.30;;
20203;SDS011;10261;49.010;12.034;2024-03-02T02:42:29;33.67;;;18.90;;
20203;SDS011;10261;49.010;12.034;2024-03-02T02:43:32;35.83;;;19.50;;
20203;SDS011;10261;49.010;12.034;2024-03-02T02:44:35;32.45;;;18.50;;
20203;SDS011;10261;49.010;12.034;2024-03-02T02:45:38;33.25;;;18.30;;
20203;SDS011;10261;49.010;12.034;2024-03-02T02:46:40;34.95;;;19.20;;
20203;SDS011;10261;49.010;12.034;2024-03-02T02:47:42;30.95;;;18.02;;
20203;SDS011;10261;49.010;12.034;2024-03-02T02:48:49;34.08;;;18.80;;
20203;SDS011;10261;49.010;12.034;2024-03-02T02:49:53;31.17;;;17.70;;
20203;SDS011;10261;49.010;12.034;2024-03-02T02:50:56;37.17;;;20.92;;
20203;SDS011;10261;49.010;12.034;2024-03-02T02:51:58;33.70;;;19.23;;
20203;SDS011;10261;49.010;12.034;2024-03-02T02:53:03;34.33;;;18.35;;
20203;SDS011;10261;49.010;12.034;2024-03-02T02:54:05;33.60;;;19.05;;
20203;SDS011;10261;49.010;12.034;2024-03-02T02:55:09;31.42;;;18.67;;
20203;SDS011;10261;49.010;12.034;2024-03-02T02:56:12;33.72;;;18.35;;
20203;SDS011;10261;49.010;12.034;2024-03-02T02:57:15;35.63;;;17.95;;
20203;SDS011;10261;49.010;12.034;2024-03-02T02:58:18;31.20;;;18.13;;
20203;SDS011;10261;49.010;12.034;2024-03-02T02:59:21;31.67;;;17.65;;
20203;SDS011;10261;49.010;12.034;2024-03-02T03:00:23;30.50;;;17.77;;
20203;SDS011;10261;49.010;12.034;2024-03-02T03:01:27;31.65;;;19.10;;
20203;SDS011;10261;49.010;12.034;2024-03-02T03:02:29;31.02;;;18.02;;
20203;SDS011;10261;49.010;12.034;2024-03-02T03:03:31;35.97;;;19.00;;
20203;SDS011;10261;49.010;12.034;2024-03-02T03:04:35;34.50;;;18.85;;
20203;SDS011;10261;49.010;12.034;2024-03-02T03:05:37;34.35;;;18.27;;
20203;SDS011;10261;49.010;12.034;2024-03-02T03:06:41;30.67;;;17.70;;
20203;SDS011;10261;49.010;12.034;2024-03-02T03:07:43;29.20;;;17.77;;
20203;SDS011;10261;49.010;12.034;2024-03-02T03:08:48;32.55;;;17.70;;
20203;SDS011;10261;49.010;12.034;2024-03-02T03:09:50;36.08;;;18.55;;
20203;SDS011;10261;49.010;12.034;2024-03-02T03:10:54;35.85;;;17.58;;
20203;SDS011;10261;49.010;12.034;2024-03-02T03:11:56;30.63;;;17.45;;
20203;SDS011;10261;49.010;12.034;2024-03-02T03:12:59;32.95;;;17.98;;
20203;SDS011;10261;49.010;12.034;2024-03-02T03:14:02;30.17;;;17.90;;
20203;SDS011;10261;49.010;12.034;2024-03-02T03:15:06;32.25;;;17.77;;
20203;SDS011;10261;49.010;12.034;2024-03-02T03:16:10;38.05;;;19.73;;
20203;SDS011;10261;49.010;12.034;2024-03-02T03:17:13;35.88;;;17.60;;
20203;SDS011;10261;49.010;12.034;2024-03-02T03:18:15;31.20;;;19.30;;
20203;SDS011;10261;49.010;12.034;2024-03-02T03:19:19;30.00;;;17.95;;
20203;SDS011;10261;49.010;12.034;2024-03-02T03:20:21;35.05;;;18.60;;
20203;SDS011;10261;49.010;12.034;2024-03-02T03:21:26;33.80;;;17.10;;
20203;SDS011;10261;49.010;12.034;2024-03-02T03:22:28;29.50;;;17.98;;
20203;SDS011;10261;49.010;12.034;2024-03-02T03:23:31;34.40;;;18.85;;
20203;SDS011;10261;49.010;12.034;2024-03-02T03:24:35;30.88;;;18.48;;
20203;SDS011;10261;49.010;12.034;2024-03-02T03:25:38;30.98;;;17.30;;
20203;SDS011;10261;49.010;12.034;2024-03-02T03:26:41;36.67;;;18.73;;
20203;SDS011;10261;49.010;12.034;2024-03-02T03:27:44;37.45;;;21.13;;
20203;SDS011;10261;49.010;12.034;2024-03-02T03:28:47;32.50;;;18.40;;
20203;SDS011;10261;49.010;12.034;2024-03-02T03:29:50;32.75;;;19.13;;
20203;SDS011;10261;49.010;12.034;2024-03-02T03:30:52;35.30;;;19.73;;
20203;SDS011;10261;49.010;12.034;2024-03-02T03:31:56;35.85;;;18.77;;
20203;SDS011;10261;49.010;12.034;2024-03-02T03:32:58;36.15;;;20.08;;
20203;SDS011;10261;49.010;12.034;2024-03-02T03:34:02;36.33;;;19.77;;
20203;SDS011;10261;49.010;12.034;2024-03-02T03:37:19;35.38;;;19.33;;
20203;SDS011;10261;49.010;12.034;2024-03-02T03:38:22;38.03;;;19.40;;
20203;SDS011;10261;49.010;12.034;2024-03-02T03:39:25;27.10;;;17.10;;
20203;SDS011;10261;49.010;12.034;2024-03-02T03:40:28;34.78;;;20.55;;
20203;SDS011;10261;49.010;12.034;2024-03-02T03:41:32;35.90;;;20.55;;
20203;SDS011;10261;49.010;12.034;2024-03-02T03:42:34;32.38;;;19.35;;
20203;SDS011;10261;49.010;12.034;2024-03-02T03:43:37;36.03;;;21.30;;
20203;SDS011;10261;49.010;12.034;2024-03-02T03:44:39;35.55;;;18.92;;
20203;SDS011;10261;49.010;12.034;2024-03-02T03:45:43;36.95;;;18.80;;
20203;SDS011;10261;49.010;12.034;2024-03-02T03:46:45;31.40;;;18.98;;
20203;SDS011;10261;49.010;12.034;2024-03-02T03:47:47;38.53;;;20.50;;
20203;SDS011;10261;49.010;12.034;2024-03-02T03:48:50;43.83;;;22.17;;
20203;SDS011;10261;49.010;12.034;2024-03-02T03:49:53;34.22;;;20.40;;
20203;SDS011;10261;49.010;12.034;2024-03-02T03:50:56;42.10;;;22.05;;
20203;SDS011;10261;49.010;12.034;2024-03-02T03:51:58;38.35;;;19.55;;
20203;SDS011;10261;49.010;12.034;2024-03-02T03:53:02;39.53;;;21.15;;
20203;SDS011;10261;49.010;12.034;2024-03-02T03:54:04;40.35;;;20.60;;
20203;SDS011;10261;49.010;12.034;2024-03-02T03:55:07;34.65;;;18.90;;
20203;SDS011;10261;49.010;12.034;2024-03-02T03:56:12;43.53;;;21.17;;
20203;SDS011;10261;49.010;12.034;2024-03-02T03:57:15;39.42;;;22.05;;
20203;SDS011;10261;49.010;12.034;2024-03-02T03:58:17;34.28;;;19.70;;
20203;SDS011;10261;49.010;12.034;2024-03-02T03:59:23;39.40;;;20.17;;
20203;SDS011;10261;49.010;12.034;2024-03-02T04:00:26;41.97;;;21.45;;
20203;SDS011;10261;49.010;12.034;2024-03-02T04:01:29;40.65;;;21.88;;
20203;SDS011;10261;49.010;12.034;2024-03-02T04:02:33;35.20;;;18.05;;
20203;SDS011;10261;49.010;12.034;2024-03-02T04:03:35;36.65;;;20.77;;
20203;SDS011;10261;49.010;12.034;2024-03-02T04:04:38;39.33;;;20.88;;
20203;SDS011;10261;49.010;12.034;2024-03-02T04:05:40;38.80;;;21.38;;
20203;SDS011;10261;49.010;12.034;2024-03-02T04:06:43;41.78;;;19.52;;
20203;SDS011;10261;49.010;12.034;2024-03-02T04:07:46;37.80;;;22.40;;
20203;SDS011;10261;49.010;12.034;2024-03-02T04:08:49;37.78;;;19.95;;
20203;SDS011;10261;49.010;12.034;2024-03-02T04:09:51;41.15;;;21.73;;
20203;SDS011;10261;49.010;12.034;2024-03-02T04:10:55;42.25;;;21.30;;
20203;SDS011;10261;49.010;12.034;2024-03-02T04:11:58;40.67;;;21.63;;
20203;SDS011;10261;49.010;12.034;2024-03-02T04:13:01;38.72;;;21.85;;
20203;SDS011;10261;49.010;12.034;2024-03-02T04:14:04;37.33;;;20.13;;
20203;SDS011;10261;49.010;12.034;2024-03-02T04:15:07;42.83;;;20.63;;
20203;SDS011;10261;49.010;12.034;2024-03-02T04:16:10;43.42;;;23.23;;
20203;SDS011;10261;49.010;12.034;2024-03-02T04:17:13;41.88;;;21.38;;
20203;SDS011;10261;49.010;12.034;2024-03-02T04:18:15;41.83;;;22.50;;
20203;SDS011;10261;49.010;12.034;2024-03-02T04:19:19;42.47;;;22.80;;
20203;SDS011;10261;49.010;12.034;2024-03-02T04:20:21;43.70;;;22.70;;
20203;SDS011;10261;49.010;12.034;2024-03-02T04:21:25;46.97;;;21.90;;
20203;SDS011;10261;49.010;12.034;2024-03-02T04:22:27;46.50;;;21.45;;
20203;SDS011;10261;49.010;12.034;2024-03-02T04:23:31;40.70;;;21.80;;
20203;SDS011;10261;49.010;12.034;2024-03-02T04:24:33;48.88;;;23.02;;
20203;SDS011;10261;49.010;12.034;2024-03-02T04:25:35;43.30;;;22.63;;
20203;SDS011;10261;49.010;12.034;2024-03-02T04:26:38;40.75;;;22.58;;
20203;SDS011;10261;49.010;12.034;2024-03-02T04:27:42;45.35;;;23.05;;
20203;SDS011;10261;49.010;12.034;2024-03-02T04:28:45;40.92;;;22.63;;
20203;SDS011;10261;49.010;12.034;2024-03-02T04:29:48;43.42;;;21.75;;
20203;SDS011;10261;49.010;12.034;2024-03-02T04:30:51;41.72;;;22.20;;
20203;SDS011;10261;49.010;12.034;2024-03-02T04:31:54;42.88;;;21.77;;
20203;SDS011;10261;49.010;12.034;2024-03-02T04:32:57;43.17;;;22.25;;
20203;SDS011;10261;49.010;12.034;2024-03-02T04:34:00;38.63;;;21.60;;
20203;SDS011;10261;49.010;12.034;2024-03-02T04:35:03;41.17;;;22.08;;
20203;SDS011;10261;49.010;12.034;2024-03-02T04:36:07;38.85;;;22.13;;
20203;SDS011;10261;49.010;12.034;2024-03-02T04:37:11;43.30;;;21.40;;
20203;SDS011;10261;49.010;12.034;2024-03-02T04:38:14;42.78;;;21.45;;
20203;SDS011;10261;49.010;12.034;2024-03-02T04:39:17;44.67;;;20.90;;
20203;SDS011;10261;49.010;12.034;2024-03-02T04:40:19;44.65;;;21.92;;
20203;SDS011;10261;49.010;12.034;2024-03-02T04:41:22;41.90;;;21.52;;
20203;SDS011;10261;49.010;12.034;2024-03-02T04:42:24;41.97;;;20.48;;
20203;SDS011;10261;49.010;12.034;2024-03-02T04:43:29;42.83;;;21.85;;
20203;SDS011;10261;49.010;12.034;2024-03-02T04:44:33;42.67;;;21.35;;
20203;SDS011;10261;49.010;12.034;2024-03-02T04:45:37;42.83;;;21.50;;
20203;SDS011;10261;49.010;12.034;2024-03-02T04:46:40;40.03;;;21.00;;
20203;SDS011;10261;49.010;12.034;2024-03-02T04:47:43;42.15;;;22.13;;
20203;SDS011;10261;49.010;12.034;2024-03-02T04:48:49;42.55;;;21.83;;
20203;SDS011;10261;49.010;12.034;2024-03-02T04:49:57;41.85;;;21.88;;
20203;SDS011;10261;49.010;12.034;2024-03-02T04:50:59;40.05;;;20.58;;
20203;SDS011;10261;49.010;12.034;2024-03-02T04:52:03;48.03;;;23.48;;
20203;SDS011;10261;49.010;12.034;2024-03-02T04:53:05;40.83;;;22.38;;
20203;SDS011;10261;49.010;12.034;2024-03-02T04:54:09;42.38;;;21.95;;
20203;SDS011;10261;49.010;12.034;2024-03-02T04:55:11;44.08;;;22.25;;
20203;SDS011;10261;49.010;12.034;2024-03-02T04:56:46;36.53;;;19.48;;
20203;SDS011;10261;49.010;12.034;2024-03-02T04:57:51;43.30;;;21.33;;
20203;SDS011;10261;49.010;12.034;2024-03-02T04:58:57;41.10;;;21.50;;
20203;SDS011;10261;49.010;12.034;2024-03-02T05:00:00;45.40;;;22.20;;
20203;SDS011;10261;49.010;12.034;2024-03-02T05:01:03;41.78;;;21.30;;
20203;SDS011;10261;49.010;12.034;2024-03-02T05:02:07;39.83;;;22.65;;
20203;SDS011;10261;49.010;12.034;2024-03-02T05:03:09;41.33;;;20.35;;
20203;SDS011;10261;49.010;12.034;2024-03-02T05:04:12;37.05;;;20.17;;
20203;SDS011;10261;49.010;12.034;2024-03-02T05:05:14;40.92;;;21.05;;
20203;SDS011;10261;49.010;12.034;2024-03-02T05:06:17;46.55;;;22.63;;
20203;SDS011;10261;49.010;12.034;2024-03-02T05:07:20;41.45;;;20.38;;
20203;SDS011;10261;49.010;12.034;2024-03-02T05:08:24;49.15;;;21.60;;
20203;SDS011;10261;49.010;12.034;2024-03-02T05:09:28;37.72;;;20.40;;
20203;SDS011;10261;49.010;12.034;2024-03-02T05:10:31;41.28;;;21.77;;
20203;SDS011;10261;49.010;12.034;2024-03-02T05:11:33;40.78;;;20.10;;
20203;SDS011;10261;49.010;12.034;2024-03-02T05:12:54;39.80;;;21.25;;
20203;SDS011;10261;49.010;12.034;2024-03-02T05:14:03;36.65;;;21.45;;
20203;SDS011;10261;49.010;12.034;2024-03-02T05:15:06;39.58;;;20.10;;
20203;SDS011;10261;49.010;12.034;2024-03-02T05:16:08;38.40;;;21.27;;
20203;SDS011;10261;49.010;12.034;2024-03-02T05:17:11;37.03;;;20.88;;
20203;SDS011;10261;49.010;12.034;2024-03-02T05:18:14;39.97;;;22.35;;
20203;SDS011;10261;49.010;12.034;2024-03-02T05:19:18;40.47;;;19.60;;
20203;SDS011;10261;49.010;12.034;2024-03-02T05:20:24;38.10;;;20.05;;
20203;SDS011;10261;49.010;12.034;2024-03-02T05:21:31;46.30;;;21.25;;
20203;SDS011;10261;49.010;12.034;2024-03-02T05:22:34;43.20;;;22.52;;
20203;SDS011;10261;49.010;12.034;2024-03-02T05:23:36;40.05;;;22.05;;
20203;SDS011;10261;49.010;12.034;2024-03-02T05:25:14;39.28;;;21.58;;
20203;SDS011;10261;49.010;12.034;2024-03-02T05:26:23;47.45;;;21.73;;
20203;SDS011;10261;49.010;12.034;2024-03-02T05:27:30;46.72;;;23.20;;
20203;SDS011;10261;49.010;12.034;2024-03-02T05:28:36;42.92;;;22.05;;
20203;SDS011;10261;49.010;12.034;2024-03-02T05:29:41;49.72;;;23.42;;
20203;SDS011;10261;49.010;12.034;2024-03-02T05:30:45;42.20;;;22.52;;
20203;SDS011;10261;49.010;12.034;2024-03-02T05:31:49;52.15;;;22.63;;
20203;SDS011;10261;49.010;12.034;2024-03-02T05:32:54;43.72;;;23.60;;
20203;SDS011;10261;49.010;12.034;2024-03-02T05:33:56;46.40;;;22.70;;
20203;SDS011;10261;49.010;12.034;2024-03-02T05:35:07;47.15;;;22.60;;
20203;SDS011;10261;49.010;12.034;2024-03-02T05:36:13;42.70;;;22.83;;
20203;SDS011;10261;49.010;12.034;2024-03-02T05:37:21;40.90;;;21.83;;
20203;SDS011;10261;49.010;12.034;2024-03-02T05:38:23;47.63;;;23.60;;
20203;SDS011;10261;49.010;12.034;2024-03-02T05:39:30;45.75;;;21.95;;
20203;SDS011;10261;49.010;12.034;2024-03-02T05:40:36;44.15;;;22.02;;
20203;SDS011;10261;49.010;12.034;2024-03-02T05:41:43;48.65;;;23.55;;
20203;SDS011;10261;49.010;12.034;2024-03-02T05:42:46;52.28;;;23.60;;
20203;SDS011;10261;49.010;12.034;2024-03-02T05:43:50;49.25;;;23.10;;
20203;SDS011;10261;49.010;12.034;2024-03-02T05:44:54;49.70;;;23.50;;
20203;SDS011;10261;49.010;12.034;2024-03-02T05:45:57;44.65;;;22.70;;
20203;SDS011;10261;49.010;12.034;2024-03-02T05:47:00;43.53;;;22.80;;
20203;SDS011;10261;49.010;12.034;2024-03-02T05:48:03;39.78;;;22.25;;
20203;SDS011;10261;49.010;12.034;2024-03-02T05:49:06;41.72;;;21.02;;
20203;SDS011;10261;49.010;12.034;2024-03-02T05:50:11;56.33;;;25.05;;
20203;SDS011;10261;49.010;12.034;2024-03-02T05:51:13;45.78;;;23.48;;
20203;SDS011;10261;49.010;12.034;2024-03-02T05:52:16;48.78;;;24.00;;
20203;SDS011;10261;49.010;12.034;2024-03-02T05:53:18;49.30;;;22.88;;
20203;SDS011;10261;49.010;12.034;2024-03-02T05:54:22;50.10;;;22.33;;
20203;SDS011;10261;49.010;12.034;2024-03-02T05:55:25;53.53;;;26.52;;
20203;SDS011;10261;49.010;12.034;2024-03-02T05:56:27;60.17;;;25.83;;
20203;SDS011;10261;49.010;12.034;2024-03-02T05:57:30;56.08;;;27.52;;
20203;SDS011;10261;49.010;12.034;2024-03-02T05:58:50;48.38;;;24.30;;
20203;SDS011;10261;49.010;12.034;2024-03-02T06:00:04;53.75;;;24.75;;
20203;SDS011;10261;49.010;12.034;2024-03-02T06:01:09;56.58;;;25.88;;
20203;SDS011;10261;49.010;12.034;2024-03-02T06:02:11;55.00;;;24.00;;
20203;SDS011;10261;49.010;12.034;2024-03-02T06:03:15;45.95;;;24.48;;
20203;SDS011;10261;49.010;12.034;2024-03-02T06:04:17;49.60;;;22.45;;
20203;SDS011;10261;49.010;12.034;2024-03-02T06:05:23;49.08;;;25.08;;
20203;SDS011;10261;49.010;12.034;2024-03-02T06:06:26;51.42;;;22.65;;
20203;SDS011;10261;49.010;12.034;2024-03-02T06:07:29;52.53;;;24.10;;
20203;SDS011;10261;49.010;12.034;2024-03-02T06:08:31;49.22;;;25.45;;
20203;SDS011;10261;49.010;12.034;2024-03-02T06:09:35;45.05;;;22.88;;
20203;SDS011;10261;49.010;12.034;2024-03-02T06:10:37;55.75;;;24.30;;